sensor_id;sensor_type;location;lat;lon;timestamp;pressure;altitude;pressure_sealevel;temperature;humidity
19114;BME280;9689;51.052;13.772;2022-08-19T00:01:56;99364.22;;;21.40;76.61
19114;BME280;9689;51.052;13.772;2022-08-19T00:06:59;99366.38;;;21.35;77.22
19114;BME280;9689;51.052;13.772;2022-08-19T00:12:00;99363.94;;;21.31;76.99
19114;BME280;9689;51.052;13.772;2022-08-19T00:17:02;99358.44;;;21.23;77.80
19114;BME280;9689;51.052;13.772;2022-08-19T00:22:03;99370.34;;;21.27;77.59
19114;BME280;9689;51.052;13.772;2022-08-19T00:27:05;99382.91;;;21.22;77.73
19114;BME280;9689;51.052;13.772;2022-08-19T00:32:26;99380.66;;;21.29;77.93
19114;BME280;9689;51.052;13.772;2022-08-19T00:37:29;99401.94;;;21.11;79.10
19114;BME280;9689;51.052;13.772;2022-08-19T00:42:29;99390.66;;;21.11;78.99
19114;BME280;9689;51.052;13.772;2022-08-19T00:47:31;99396.91;;;21.08;79.44
19114;BME280;9689;51.052;13.772;2022-08-19T00:52:34;99390.78;;;20.96;80.24
19114;BME280;9689;51.052;13.772;2022-08-19T00:57:38;99399.66;;;20.94;80.59
19114;BME280;9689;51.052;13.772;2022-08-19T01:02:41;99394.16;;;20.85;81.28
19114;BME280;9689;51.052;13.772;2022-08-19T01:07:43;99382.13;;;20.83;82.12
19114;BME280;9689;51.052;13.772;2022-08-19T01:12:45;99401.31;;;20.82;82.29
19114;BME280;9689;51.052;13.772;2022-08-19T01:17:47;99400.09;;;20.74;82.88
19114;BME280;9689;51.052;13.772;2022-08-19T01:22:52;99404.69;;;20.71;82.84
19114;BME280;9689;51.052;13.772;2022-08-19T01:27:53;99416.38;;;20.65;83.26
19114;BME280;9689;51.052;13.772;2022-08-19T01:33:00;99422.84;;;20.72;83.12
19114;BME280;9689;51.052;13.772;2022-08-19T01:38:09;99419.91;;;20.77;82.90
19114;BME280;9689;51.052;13.772;2022-08-19T01:43:10;99407.28;;;20.71;83.03
19114;BME280;9689;51.052;13.772;2022-08-19T01:48:11;99399.78;;;20.66;83.92
19114;BME280;9689;51.052;13.772;2022-08-19T01:53:14;99414.50;;;20.67;84.14
19114;BME280;9689;51.052;13.772;2022-08-19T01:58:17;99415.97;;;20.71;84.00
19114;BME280;9689;51.052;13.772;2022-08-19T02:03:19;99410.75;;;20.71;84.22
19114;BME280;9689;51.052;13.772;2022-08-19T02:08:21;99401.34;;;20.69;84.63
19114;BME280;9689;51.052;13.772;2022-08-19T02:13:23;99371.28;;;20.63;85.13
19114;BME280;9689;51.052;13.772;2022-08-19T02:18:25;99385.06;;;20.65;85.10
19114;BME280;9689;51.052;13.772;2022-08-19T02:23:28;99411.16;;;20.65;85.58
19114;BME280;9689;51.052;13.772;2022-08-19T02:28:28;99419.81;;;20.78;84.56
19114;BME280;9689;51.052;13.772;2022-08-19T02:33:29;99412.00;;;20.78;84.73
19114;BME280;9689;51.052;13.772;2022-08-19T02:38:31;99406.16;;;20.88;84.36
19114;BME280;9689;51.052;13.772;2022-08-19T02:43:32;99399.56;;;20.82;84.45
19114;BME280;9689;51.052;13.772;2022-08-19T02:48:35;99390.50;;;20.88;84.52
19114;BME280;9689;51.052;13.772;2022-08-19T02:53:37;99406.97;;;20.75;85.17
19114;BME280;9689;51.052;13.772;2022-08-19T02:58:38;99416.59;;;20.75;85.41
19114;BME280;9689;51.052;13.772;2022-08-19T03:03:38;99412.41;;;20.72;85.57
19114;BME280;9689;51.052;13.772;2022-08-19T03:08:42;99409.19;;;20.69;85.79
19114;BME280;9689;51.052;13.772;2022-08-19T03:13:43;99407.06;;;20.74;85.68
19114;BME280;9689;51.052;13.772;2022-08-19T03:18:44;99399.47;;;20.71;85.56
19114;BME280;9689;51.052;13.772;2022-08-19T03:23:46;99405.81;;;20.67;85.77
19114;BME280;9689;51.052;13.772;2022-08-19T03:28:47;99416.88;;;20.70;85.83
19114;BME280;9689;51.052;13.772;2022-08-19T03:33:57;99413.44;;;20.70;85.64
19114;BME280;9689;51.052;13.772;2022-08-19T03:39:01;99426.91;;;20.76;85.63
19114;BME280;9689;51.052;13.772;2022-08-19T03:44:02;99425.13;;;20.77;85.59
19114;BME280;9689;51.052;13.772;2022-08-19T03:49:11;99425.22;;;20.75;85.09
19114;BME280;9689;51.052;13.772;2022-08-19T03:54:16;99426.41;;;20.84;84.84
19114;BME280;9689;51.052;13.772;2022-08-19T03:59:19;99436.38;;;20.77;85.36
19114;BME280;9689;51.052;13.772;2022-08-19T04:04:20;99422.63;;;20.75;84.52
19114;BME280;9689;51.052;13.772;2022-08-19T04:09:23;99429.19;;;20.68;84.81
19114;BME280;9689;51.052;13.772;2022-08-19T04:14:25;99418.03;;;20.66;85.48
19114;BME280;9689;51.052;13.772;2022-08-19T04:19:26;99422.94;;;20.71;85.21
19114;BME280;9689;51.052;13.772;2022-08-19T04:24:30;99416.16;;;20.68;85.47
19114;BME280;9689;51.052;13.772;2022-08-19T04:29:32;99423.97;;;20.68;85.12
19114;BME280;9689;51.052;13.772;2022-08-19T04:34:33;99430.56;;;20.61;85.80
19114;BME280;9689;51.052;13.772;2022-08-19T04:39:35;99428.69;;;20.63;85.97
19114;BME280;9689;51.052;13.772;2022-08-19T04:45:00;99431.09;;;20.66;85.36
19114;BME280;9689;51.052;13.772;2022-08-19T04:50:07;99435.38;;;20.67;85.50
19114;BME280;9689;51.052;13.772;2022-08-19T04:55:12;99439.84;;;20.78;84.68
19114;BME280;9689;51.052;13.772;2022-08-19T05:00:14;99436.38;;;20.77;84.39
19114;BME280;9689;51.052;13.772;2022-08-19T05:05:15;99429.09;;;20.70;84.85
19114;BME280;9689;51.052;13.772;2022-08-19T05:10:17;99431.63;;;20.71;84.84
19114;BME280;9689;51.052;13.772;2022-08-19T05:15:18;99450.59;;;20.73;84.53
19114;BME280;9689;51.052;13.772;2022-08-19T05:20:19;99452.28;;;20.61;85.36
19114;BME280;9689;51.052;13.772;2022-08-19T05:25:39;99478.56;;;20.58;85.45
19114;BME280;9689;51.052;13.772;2022-08-19T05:30:40;99478.13;;;20.51;85.66
19114;BME280;9689;51.052;13.772;2022-08-19T05:35:46;99488.97;;;20.45;85.91
19114;BME280;9689;51.052;13.772;2022-08-19T05:40:49;99501.06;;;20.46;86.13
19114;BME280;9689;51.052;13.772;2022-08-19T05:45:50;99503.59;;;20.61;84.93
19114;BME280;9689;51.052;13.772;2022-08-19T05:50:50;99523.31;;;20.52;85.16
19114;BME280;9689;51.052;13.772;2022-08-19T05:55:52;99525.09;;;20.51;85.08
19114;BME280;9689;51.052;13.772;2022-08-19T06:00:55;99526.72;;;20.40;85.94
19114;BME280;9689;51.052;13.772;2022-08-19T06:05:55;99544.94;;;20.27;86.88
19114;BME280;9689;51.052;13.772;2022-08-19T06:11:11;99567.13;;;20.19;87.90
19114;BME280;9689;51.052;13.772;2022-08-19T06:16:12;99577.75;;;20.16;87.37
19114;BME280;9689;51.052;13.772;2022-08-19T06:21:20;99590.38;;;20.22;86.37
19114;BME280;9689;51.052;13.772;2022-08-19T06:26:23;99595.97;;;20.31;85.11
19114;BME280;9689;51.052;13.772;2022-08-19T06:31:27;99606.00;;;20.37;84.54
19114;BME280;9689;51.052;13.772;2022-08-19T06:36:31;99611.09;;;20.38;84.61
19114;BME280;9689;51.052;13.772;2022-08-19T06:41:36;99607.47;;;20.41;84.85
19114;BME280;9689;51.052;13.772;2022-08-19T06:46:49;99611.66;;;20.44;84.80
19114;BME280;9689;51.052;13.772;2022-08-19T06:51:53;99623.09;;;20.41;84.98
19114;BME280;9689;51.052;13.772;2022-08-19T06:56:58;99632.47;;;20.31;85.89
19114;BME280;9689;51.052;13.772;2022-08-19T07:02:03;99638.25;;;20.21;86.93
19114;BME280;9689;51.052;13.772;2022-08-19T07:07:07;99637.16;;;20.11;88.38
19114;BME280;9689;51.052;13.772;2022-08-19T07:12:21;99625.44;;;20.04;89.21
19114;BME280;9689;51.052;13.772;2022-08-19T07:17:21;99619.09;;;20.08;88.78
19114;BME280;9689;51.052;13.772;2022-08-19T07:22:22;99624.84;;;20.13;89.06
19114;BME280;9689;51.052;13.772;2022-08-19T07:27:24;99649.84;;;20.03;90.15
19114;BME280;9689;51.052;13.772;2022-08-19T07:32:25;99654.13;;;20.04;90.62
19114;BME280;9689;51.052;13.772;2022-08-19T07:37:26;99656.41;;;19.94;91.38
19114;BME280;9689;51.052;13.772;2022-08-19T07:42:33;99666.72;;;19.81;92.65
19114;BME280;9689;51.052;13.772;2022-08-19T07:47:33;99661.34;;;19.69;94.31
19114;BME280;9689;51.052;13.772;2022-08-19T07:52:49;99658.53;;;19.58;95.95
19114;BME280;9689;51.052;13.772;2022-08-19T07:57:52;99652.75;;;19.53;97.32
19114;BME280;9689;51.052;13.772;2022-08-19T08:02:53;99656.50;;;19.49;97.41
19114;BME280;9689;51.052;13.772;2022-08-19T08:07:54;99664.41;;;19.47;97.85
19114;BME280;9689;51.052;13.772;2022-08-19T08:13:14;99665.59;;;19.41;98.49
19114;BME280;9689;51.052;13.772;2022-08-19T08:18:15;99670.25;;;19.51;97.93
19114;BME280;9689;51.052;13.772;2022-08-19T08:23:16;99677.13;;;19.52;97.46
19114;BME280;9689;51.052;13.772;2022-08-19T08:28:27;99687.19;;;19.58;98.24
19114;BME280;9689;51.052;13.772;2022-08-19T08:33:29;99682.53;;;19.49;98.65
19114;BME280;9689;51.052;13.772;2022-08-19T08:38:33;99688.50;;;19.51;99.94
19114;BME280;9689;51.052;13.772;2022-08-19T08:43:40;99705.50;;;19.56;99.13
19114;BME280;9689;51.052;13.772;2022-08-19T08:48:49;99710.19;;;19.66;97.77
19114;BME280;9689;51.052;13.772;2022-08-19T08:53:52;99696.97;;;19.83;95.76
19114;BME280;9689;51.052;13.772;2022-08-19T08:58:58;99699.50;;;20.14;95.08
19114;BME280;9689;51.052;13.772;2022-08-19T09:04:02;99699.31;;;20.32;93.90
19114;BME280;9689;51.052;13.772;2022-08-19T09:09:13;99711.00;;;20.54;91.15
19114;BME280;9689;51.052;13.772;2022-08-19T09:14:28;99695.88;;;20.73;89.80
19114;BME280;9689;51.052;13.772;2022-08-19T09:19:52;99703.47;;;20.91;87.14
19114;BME280;9689;51.052;13.772;2022-08-19T09:24:54;99692.06;;;21.32;84.70
19114;BME280;9689;51.052;13.772;2022-08-19T09:29:56;99682.59;;;21.70;82.95
19114;BME280;9689;51.052;13.772;2022-08-19T09:34:57;99672.75;;;21.61;82.09
19114;BME280;9689;51.052;13.772;2022-08-19T09:40:02;99674.44;;;21.49;81.88
19114;BME280;9689;51.052;13.772;2022-08-19T09:45:06;99662.09;;;21.64;81.35
19114;BME280;9689;51.052;13.772;2022-08-19T09:50:11;99663.03;;;21.63;80.91
19114;BME280;9689;51.052;13.772;2022-08-19T09:55:15;99671.22;;;21.84;80.35
19114;BME280;9689;51.052;13.772;2022-08-19T10:00:18;99681.53;;;21.99;79.39
19114;BME280;9689;51.052;13.772;2022-08-19T10:05:19;99687.72;;;21.85;79.92
19114;BME280;9689;51.052;13.772;2022-08-19T10:10:41;99681.03;;;21.68;79.25
19114;BME280;9689;51.052;13.772;2022-08-19T10:15:46;99676.19;;;22.13;77.88
19114;BME280;9689;51.052;13.772;2022-08-19T10:20:50;99685.63;;;22.40;76.29
19114;BME280;9689;51.052;13.772;2022-08-19T10:25:52;99693.25;;;22.44;76.24
19114;BME280;9689;51.052;13.772;2022-08-19T10:30:54;99698.53;;;22.92;74.44
19114;BME280;9689;51.052;13.772;2022-08-19T10:35:59;99699.72;;;23.83;71.60
19114;BME280;9689;51.052;13.772;2022-08-19T10:41:06;99699.78;;;23.47;71.66
19114;BME280;9689;51.052;13.772;2022-08-19T10:46:10;99700.03;;;23.55;71.42
19114;BME280;9689;51.052;13.772;2022-08-19T10:51:15;99704.25;;;23.92;69.57
19114;BME280;9689;51.052;13.772;2022-08-19T10:56:34;99716.63;;;23.79;70.16
19114;BME280;9689;51.052;13.772;2022-08-19T11:02:00;99714.47;;;23.49;70.49
19114;BME280;9689;51.052;13.772;2022-08-19T11:07:02;99722.31;;;23.61;69.78
19114;BME280;9689;51.052;13.772;2022-08-19T11:12:04;99729.84;;;23.77;69.47
19114;BME280;9689;51.052;13.772;2022-08-19T11:17:06;99726.88;;;23.82;68.09
19114;BME280;9689;51.052;13.772;2022-08-19T11:22:08;99736.06;;;23.87;68.45
19114;BME280;9689;51.052;13.772;2022-08-19T11:27:14;99729.84;;;23.66;69.07
19114;BME280;9689;51.052;13.772;2022-08-19T11:32:16;99737.50;;;23.33;70.57
19114;BME280;9689;51.052;13.772;2022-08-19T11:37:17;99753.53;;;22.92;72.54
19114;BME280;9689;51.052;13.772;2022-08-19T11:42:17;99738.66;;;23.53;70.05
19114;BME280;9689;51.052;13.772;2022-08-19T11:47:37;99719.59;;;23.51;69.95
19114;BME280;9689;51.052;13.772;2022-08-19T11:52:38;99746.94;;;23.11;71.58
19114;BME280;9689;51.052;13.772;2022-08-19T11:57:39;99752.34;;;22.97;72.29
19114;BME280;9689;51.052;13.772;2022-08-19T12:02:44;99758.19;;;22.76;73.23
19114;BME280;9689;51.052;13.772;2022-08-19T12:07:44;99744.31;;;22.87;72.55
19114;BME280;9689;51.052;13.772;2022-08-19T12:12:46;99747.38;;;23.05;71.74
19114;BME280;9689;51.052;13.772;2022-08-19T12:17:59;99768.34;;;22.30;74.57
19114;BME280;9689;51.052;13.772;2022-08-19T12:23:02;99767.59;;;22.02;76.08
19114;BME280;9689;51.052;13.772;2022-08-19T12:28:03;99773.47;;;21.93;76.62
19114;BME280;9689;51.052;13.772;2022-08-19T12:33:05;99777.84;;;22.18;75.68
19114;BME280;9689;51.052;13.772;2022-08-19T12:38:05;99766.91;;;22.50;74.22
19114;BME280;9689;51.052;13.772;2022-08-19T12:43:07;99782.97;;;22.83;73.41
19114;BME280;9689;51.052;13.772;2022-08-19T12:48:09;99785.47;;;22.60;73.06
19114;BME280;9689;51.052;13.772;2022-08-19T12:53:29;99784.59;;;22.73;72.53
19114;BME280;9689;51.052;13.772;2022-08-19T12:58:32;99778.78;;;22.80;71.82
19114;BME280;9689;51.052;13.772;2022-08-19T13:03:35;99783.75;;;22.97;70.84
19114;BME280;9689;51.052;13.772;2022-08-19T13:08:39;99783.16;;;22.93;70.64
19114;BME280;9689;51.052;13.772;2022-08-19T13:13:43;99779.91;;;22.89;70.49
19114;BME280;9689;51.052;13.772;2022-08-19T13:18:46;99768.59;;;22.64;71.54
19114;BME280;9689;51.052;13.772;2022-08-19T13:23:47;99771.28;;;22.76;71.95
19114;BME280;9689;51.052;13.772;2022-08-19T13:28:48;99775.00;;;22.60;72.52
19114;BME280;9689;51.052;13.772;2022-08-19T13:34:08;99774.31;;;22.06;74.48
19114;BME280;9689;51.052;13.772;2022-08-19T13:39:09;99775.34;;;22.04;75.02
19114;BME280;9689;51.052;13.772;2022-08-19T13:44:10;99774.53;;;22.03;74.85
19114;BME280;9689;51.052;13.772;2022-08-19T13:49:12;99779.63;;;21.92;75.36
19114;BME280;9689;51.052;13.772;2022-08-19T13:54:15;99770.94;;;21.91;74.48
19114;BME280;9689;51.052;13.772;2022-08-19T13:59:16;99775.78;;;21.84;74.69
19114;BME280;9689;51.052;13.772;2022-08-19T14:04:18;99773.88;;;21.73;75.66
19114;BME280;9689;51.052;13.772;2022-08-19T14:09:18;99779.47;;;21.54;77.03
19114;BME280;9689;51.052;13.772;2022-08-19T14:14:19;99777.38;;;21.59;77.09
19114;BME280;9689;51.052;13.772;2022-08-19T14:19:22;99763.53;;;21.72;76.67
19114;BME280;9689;51.052;13.772;2022-08-19T14:24:22;99766.34;;;21.82;75.62
19114;BME280;9689;51.052;13.772;2022-08-19T14:29:24;99779.53;;;21.80;75.64
19114;BME280;9689;51.052;13.772;2022-08-19T14:34:26;99783.44;;;21.60;76.55
19114;BME280;9689;51.052;13.772;2022-08-19T14:39:26;99799.63;;;21.52;77.23
19114;BME280;9689;51.052;13.772;2022-08-19T14:44:27;99791.16;;;21.49;77.36
19114;BME280;9689;51.052;13.772;2022-08-19T14:49:29;99796.19;;;21.52;77.49
19114;BME280;9689;51.052;13.772;2022-08-19T14:54:34;99808.50;;;21.50;77.70
19114;BME280;9689;51.052;13.772;2022-08-19T14:59:34;99803.66;;;21.43;77.35
19114;BME280;9689;51.052;13.772;2022-08-19T15:04:36;99786.44;;;21.41;77.79
19114;BME280;9689;51.052;13.772;2022-08-19T15:09:38;99769.84;;;21.42;77.66
19114;BME280;9689;51.052;13.772;2022-08-19T15:14:39;99782.97;;;21.40;77.84
19114;BME280;9689;51.052;13.772;2022-08-19T15:19:43;99789.25;;;21.38;77.83
19114;BME280;9689;51.052;13.772;2022-08-19T15:24:43;99792.88;;;21.35;78.36
19114;BME280;9689;51.052;13.772;2022-08-19T15:29:46;99802.69;;;21.31;78.27
19114;BME280;9689;51.052;13.772;2022-08-19T15:34:54;99793.03;;;21.19;78.64
19114;BME280;9689;51.052;13.772;2022-08-19T15:39:55;99780.44;;;21.26;78.51
19114;BME280;9689;51.052;13.772;2022-08-19T15:44:56;99760.81;;;21.33;78.29
19114;BME280;9689;51.052;13.772;2022-08-19T15:50:04;99763.44;;;21.46;77.02
19114;BME280;9689;51.052;13.772;2022-08-19T15:55:09;99762.53;;;21.47;76.98
19114;BME280;9689;51.052;13.772;2022-08-19T16:00:19;99755.66;;;21.59;76.76
19114;BME280;9689;51.052;13.772;2022-08-19T16:05:36;99749.03;;;21.53;76.61
19114;BME280;9689;51.052;13.772;2022-08-19T16:10:55;99763.81;;;21.54;76.50
19114;BME280;9689;51.052;13.772;2022-08-19T16:15:55;99755.53;;;21.60;76.04
19114;BME280;9689;51.052;13.772;2022-08-19T16:20:57;99763.19;;;21.64;75.78
19114;BME280;9689;51.052;13.772;2022-08-19T16:25:58;99766.41;;;21.54;75.89
19114;BME280;9689;51.052;13.772;2022-08-19T16:30:59;99763.25;;;21.49;76.69
19114;BME280;9689;51.052;13.772;2022-08-19T16:36:01;99754.25;;;21.53;75.95
19114;BME280;9689;51.052;13.772;2022-08-19T16:41:07;99753.41;;;21.40;76.17
19114;BME280;9689;51.052;13.772;2022-08-19T16:46:08;99751.84;;;21.37;76.21
19114;BME280;9689;51.052;13.772;2022-08-19T16:51:13;99726.22;;;21.29;76.56
19114;BME280;9689;51.052;13.772;2022-08-19T16:56:13;99737.09;;;21.23;76.73
19114;BME280;9689;51.052;13.772;2022-08-19T17:01:14;99749.41;;;21.21;76.94
19114;BME280;9689;51.052;13.772;2022-08-19T17:06:20;99743.66;;;21.16;77.24
19114;BME280;9689;51.052;13.772;2022-08-19T17:11:23;99739.75;;;21.09;77.55
19114;BME280;9689;51.052;13.772;2022-08-19T17:16:27;99748.22;;;21.12;76.97
19114;BME280;9689;51.052;13.772;2022-08-19T17:21:31;99754.47;;;21.10;77.06
19114;BME280;9689;51.052;13.772;2022-08-19T17:26:32;99763.97;;;21.11;77.16
19114;BME280;9689;51.052;13.772;2022-08-19T17:31:33;99759.72;;;21.10;77.16
19114;BME280;9689;51.052;13.772;2022-08-19T17:36:35;99753.00;;;21.05;77.53
19114;BME280;9689;51.052;13.772;2022-08-19T17:41:36;99750.38;;;21.05;77.76
19114;BME280;9689;51.052;13.772;2022-08-19T17:46:37;99743.41;;;21.06;77.33
19114;BME280;9689;51.052;13.772;2022-08-19T17:51:42;99757.50;;;21.03;77.78
19114;BME280;9689;51.052;13.772;2022-08-19T17:56:43;99794.69;;;21.07;77.14
19114;BME280;9689;51.052;13.772;2022-08-19T18:01:45;99808.75;;;21.04;77.91
19114;BME280;9689;51.052;13.772;2022-08-19T18:06:53;99811.56;;;21.01;77.86
19114;BME280;9689;51.052;13.772;2022-08-19T18:11:56;99823.34;;;20.94;78.16
19114;BME280;9689;51.052;13.772;2022-08-19T18:16:57;99841.78;;;20.91;78.38
19114;BME280;9689;51.052;13.772;2022-08-19T18:21:59;99860.25;;;21.02;78.17
19114;BME280;9689;51.052;13.772;2022-08-19T18:27:00;99876.84;;;21.01;78.40
19114;BME280;9689;51.052;13.772;2022-08-19T18:32:00;99868.28;;;20.99;78.25
19114;BME280;9689;51.052;13.772;2022-08-19T18:37:03;99889.97;;;21.00;78.20
19114;BME280;9689;51.052;13.772;2022-08-19T18:42:04;99873.88;;;20.93;78.37
19114;BME280;9689;51.052;13.772;2022-08-19T18:47:22;99857.44;;;20.91;78.58
19114;BME280;9689;51.052;13.772;2022-08-19T18:52:42;99853.38;;;20.87;79.18
19114;BME280;9689;51.052;13.772;2022-08-19T18:57:42;99859.88;;;20.80;79.66
19114;BME280;9689;51.052;13.772;2022-08-19T19:02:43;99855.03;;;20.73;80.03
19114;BME280;9689;51.052;13.772;2022-08-19T19:07:46;99864.34;;;20.77;80.24
19114;BME280;9689;51.052;13.772;2022-08-19T19:12:47;99857.09;;;20.68;80.38
19114;BME280;9689;51.052;13.772;2022-08-19T19:17:48;99852.06;;;20.65;80.54
19114;BME280;9689;51.052;13.772;2022-08-19T19:22:50;99852.97;;;20.64;80.69
19114;BME280;9689;51.052;13.772;2022-08-19T19:27:56;99850.00;;;20.56;80.85
19114;BME280;9689;51.052;13.772;2022-08-19T19:32:57;99851.97;;;20.52;81.23
19114;BME280;9689;51.052;13.772;2022-08-19T19:38:01;99845.25;;;20.62;80.20
19114;BME280;9689;51.052;13.772;2022-08-19T19:43:01;99852.44;;;20.59;79.93
19114;BME280;9689;51.052;13.772;2022-08-19T19:48:03;99866.03;;;20.49;80.13
19114;BME280;9689;51.052;13.772;2022-08-19T19:53:05;99855.78;;;20.46;79.97
19114;BME280;9689;51.052;13.772;2022-08-19T19:58:06;99840.78;;;20.50;79.76
19114;BME280;9689;51.052;13.772;2022-08-19T20:03:07;99836.41;;;20.50;79.93
19114;BME280;9689;51.052;13.772;2022-08-19T20:08:09;99852.06;;;20.50;79.37
19114;BME280;9689;51.052;13.772;2022-08-19T20:13:27;99861.75;;;20.48;79.29
19114;BME280;9689;51.052;13.772;2022-08-19T20:18:29;99871.59;;;20.43;79.43
19114;BME280;9689;51.052;13.772;2022-08-19T20:23:31;99900.50;;;20.40;79.75
19114;BME280;9689;51.052;13.772;2022-08-19T20:28:32;99894.72;;;20.49;79.24
19114;BME280;9689;51.052;13.772;2022-08-19T20:33:33;99874.13;;;20.45;79.61
19114;BME280;9689;51.052;13.772;2022-08-19T20:38:35;99876.28;;;20.38;80.34
19114;BME280;9689;51.052;13.772;2022-08-19T20:43:37;99879.78;;;20.22;81.23
19114;BME280;9689;51.052;13.772;2022-08-19T20:48:39;99880.69;;;19.91;83.48
19114;BME280;9689;51.052;13.772;2022-08-19T20:53:42;99887.47;;;19.79;84.45
19114;BME280;9689;51.052;13.772;2022-08-19T20:58:43;99885.97;;;19.75;85.25
19114;BME280;9689;51.052;13.772;2022-08-19T21:03:52;99869.88;;;19.82;84.58
19114;BME280;9689;51.052;13.772;2022-08-19T21:08:54;99862.25;;;19.95;83.53
19114;BME280;9689;51.052;13.772;2022-08-19T21:13:55;99883.75;;;19.99;82.92
19114;BME280;9689;51.052;13.772;2022-08-19T21:18:56;99863.38;;;20.06;82.01
19114;BME280;9689;51.052;13.772;2022-08-19T21:23:58;99876.97;;;20.11;81.63
19114;BME280;9689;51.052;13.772;2022-08-19T21:28:59;99879.38;;;20.14;81.15
19114;BME280;9689;51.052;13.772;2022-08-19T21:34:00;99886.03;;;20.20;81.10
19114;BME280;9689;51.052;13.772;2022-08-19T21:39:02;99874.47;;;20.24;80.63
19114;BME280;9689;51.052;13.772;2022-08-19T21:44:03;99882.78;;;20.31;80.35
19114;BME280;9689;51.052;13.772;2022-08-19T21:49:04;99886.50;;;20.27;80.19
19114;BME280;9689;51.052;13.772;2022-08-19T21:54:06;99863.78;;;20.29;80.15
19114;BME280;9689;51.052;13.772;2022-08-19T21:59:12;99848.41;;;20.24;80.05
19114;BME280;9689;51.052;13.772;2022-08-19T22:04:13;99859.31;;;20.16;80.49
19114;BME280;9689;51.052;13.772;2022-08-19T22:09:15;99862.81;;;20.15;80.58
19114;BME280;9689;51.052;13.772;2022-08-19T22:14:16;99867.13;;;20.16;80.61
19114;BME280;9689;51.052;13.772;2022-08-19T22:19:16;99885.53;;;20.13;80.82
19114;BME280;9689;51.052;13.772;2022-08-19T22:24:18;99879.53;;;20.27;80.09
19114;BME280;9689;51.052;13.772;2022-08-19T22:29:19;99872.88;;;20.21;80.30
19114;BME280;9689;51.052;13.772;2022-08-19T22:34:32;99862.28;;;20.24;80.04
19114;BME280;9689;51.052;13.772;2022-08-19T22:39:34;99871.78;;;20.26;80.23
19114;BME280;9689;51.052;13.772;2022-08-19T22:44:35;99879.97;;;20.19;80.52
19114;BME280;9689;51.052;13.772;2022-08-19T22:49:36;99881.84;;;20.17;80.72
19114;BME280;9689;51.052;13.772;2022-08-19T22:54:38;99889.00;;;20.14;80.84
19114;BME280;9689;51.052;13.772;2022-08-19T22:59:39;99909.94;;;20.12;80.97
19114;BME280;9689;51.052;13.772;2022-08-19T23:04:39;99877.63;;;20.15;81.07
19114;BME280;9689;51.052;13.772;2022-08-19T23:09:42;99882.72;;;20.02;81.63
19114;BME280;9689;51.052;13.772;2022-08-19T23:14:42;99876.78;;;20.14;81.22
19114;BME280;9689;51.052;13.772;2022-08-19T23:19:44;99864.88;;;20.10;81.00
19114;BME280;9689;51.052;13.772;2022-08-19T23:24:46;99857.31;;;20.05;81.22
19114;BME280;9689;51.052;13.772;2022-08-19T23:29:54;99863.72;;;20.00;81.48
19114;BME280;9689;51.052;13.772;2022-08-19T23:35:12;99862.97;;;19.98;81.73
19114;BME280;9689;51.052;13.772;2022-08-19T23:40:15;99862.56;;;19.89;81.81
19114;BME280;9689;51.052;13.772;2022-08-19T23:45:17;99873.09;;;19.72;82.97
19114;BME280;9689;51.052;13.772;2022-08-19T23:50:24;99869.75;;;19.69;82.64
19114;BME280;9689;51.052;13.772;2022-08-19T23:55:28;99862.09;;;19.66;82.92
